Time,TemperatureF,DewpointF,PressureIn,WindDirection,WindDirectionDegrees,WindSpeedMPH,WindSpeedGustMPH,Humidity,HourlyPrecipIn,Conditions,Clouds,dailyrainin,SoftwareType,DateUTC
2013-02-03 00:02:00,13.1,9.4,30.15,SW,222,0.0,0.0,85,0.00,CLR,CLR,0.00,WeatherDisplay:10.34,2013-02-03 07:02:00,
2013-02-03 00:07:00,13.0,9.6,30.15,SW,222,0.0,0.0,86,0.00,CLR,CLR,0.00,WeatherDisplay:10.34,2013-02-03 07:07:00,
2013-02-03 00:12:00,13.0,9.6,30.15,SW,222,1.0,1.0,86,0.00,CLR,CLR,0.00,WeatherDisplay:10.34,2013-02-03 07:12:00,
2013-02-03 00:17:00,13.0,9.6,30.15,SW,222,0.0,0.0,86,0.00,CLR,CLR,0.00,WeatherDisplay:10.34,2013-02-03 07:17:00,
2013-02-03 00:22:00,13.0,9.6,30.14,SW,222,0.0,1.0,86,0.00,CLR,CLR,0.00,WeatherDisplay:10.34,2013-02-03 07:22:00,
2013-02-03 00:27:00,13.1,9.7,30.14,SW,222,0.0,0.0,86,0.00,CLR,CLR,0.00,WeatherDisplay:10.34,2013-02-03 07:27:00,
2013-02-03 00:32:00,12.9,9.5,30.13,SW,222,0.0,0.0,86,0.00,CLR,CLR,0.00,WeatherDisplay:10.34,2013-02-03 07:32:00,
2013-02-03 00:37:00,12.8,9.4,30.13,SW,222,0.0,0.0,86,0.00,CLR,CLR,0.00,WeatherDisplay:10.34,2013-02-03 07:37:00,
2013-02-03 00:42:00,12.6,9.2,30.13,SW,222,0.0,0.0,86,0.00,CLR,CLR,0.00,WeatherDisplay:10.34,2013-02-03 07:42:00,
2013-02-03 00:47:00,12.5,9.1,30.13,SW,222,0.0,0.0,86,0.00,CLR,CLR,0.00,WeatherDisplay:10.34,2013-02-03 07:47:00,
2013-02-03 00:52:00,12.4,9.0,30.12,SW,222,0.0,0.0,86,0.00,CLR,CLR,0.00,WeatherDisplay:10.34,2013-02-03 07:52:00,
2013-02-03 00:57:00,12.3,8.9,30.12,SW,222,0.0,1.0,86,0.00,CLR,CLR,0.00,WeatherDisplay:10.34,2013-02-03 07:57:00,
2013-02-03 01:02:00,12.4,9.0,30.12,SW,222,0.0,0.0,86,0.00,CLR,CLR,0.00,WeatherDisplay:10.34,2013-02-03 08:02:00,
2013-02-03 01:07:00,12.3,8.9,30.12,SW,222,0.0,0.0,86,0.00,CLR,CLR,0.00,WeatherDisplay:10.34,2013-02-03 08:07:00,
2013-02-03 01:12:00,12.4,9.0,30.12,SW,222,0.0,0.0,86,0.00,CLR,CLR,0.00,WeatherDisplay:10.34,2013-02-03 08:12:00,
2013-02-03 01:17:00,12.5,9.4,30.12,SW,222,0.0,0.0,87,0.00,CLR,CLR,0.00,WeatherDisplay:10.34,2013-02-03 08:17:00,
2013-02-03 01:22:00,12.5,9.4,30.12,SW,222,0.0,0.0,87,0.00,CLR,CLR,0.00,WeatherDisplay:10.34,2013-02-03 08:22:00,
2013-02-03 01:27:00,12.6,9.5,30.11,SW,222,1.0,1.0,87,0.00,CLR,CLR,0.00,WeatherDisplay:10.34,2013-02-03 08:27:00,
2013-02-03 01:32:00,12.7,9.6,30.11,SW,222,0.0,0.0,87,0.00,CLR,CLR,0.00,WeatherDisplay:10.34,2013-02-03 08:32:00,
2013-02-03 01:37:00,12.8,9.7,30.11,SW,222,0.0,0.0,87,0.00,CLR,CLR,0.00,WeatherDisplay:10.34,2013-02-03 08:37:00,
2013-02-03 01:42:00,12.8,9.7,30.11,SW,222,0.0,1.0,87,0.00,CLR,CLR,0.00,WeatherDisplay:10.34,2013-02-03 08:42:00,
2013-02-03 01:47:00,12.8,9.7,30.11,NW,315,4.0,4.0,87,0.00,CLR,CLR,0.00,WeatherDisplay:10.34,2013-02-03 08:47:00,
2013-02-03 01:52:00,13.2,10.3,30.11,NW,313,1.0,3.0,88,0.00,CLR,CLR,0.00,WeatherDisplay:10.34,2013-02-03 08:52:00,
2013-02-03 01:57:00,14.0,11.4,30.10,WNW,295,1.0,2.0,89,0.00,CLR,CLR,0.00,WeatherDisplay:10.34,2013-02-03 08:57:00,
2013-02-03 02:02:00,14.6,11.9,30.10,WNW,294,8.0,8.0,89,0.00,CLR,CLR,0.00,WeatherDisplay:10.34,2013-02-03 09:02:00,
2013-02-03 02:07:00,15.1,12.4,30.10,North,355,0.0,1.0,89,0.00,CLR,CLR,0.00,WeatherDisplay:10.34,2013-02-03 09:07:00,
2013-02-03 02:12:00,15.3,12.6,30.11,NNW,344,5.0,8.0,89,0.00,CLR,CLR,0.00,WeatherDisplay:10.34,2013-02-03 09:12:00,
2013-02-03 02:17:00,15.9,13.2,30.11,NNW,344,4.0,4.0,89,0.00,CLR,CLR,0.00,WeatherDisplay:10.34,2013-02-03 09:17:00,
2013-02-03 02:22:00,16.1,13.4,30.11,WSW,247,0.0,0.0,89,0.00,CLR,CLR,0.00,WeatherDisplay:10.34,2013-02-03 09:22:00,
2013-02-03 02:27:00,16.0,13.3,30.11,NNW,341,3.0,3.0,89,0.00,CLR,CLR,0.00,WeatherDisplay:10.34,2013-02-03 09:27:00,
2013-02-03 02:32:00,15.3,12.4,30.10,NW,322,1.0,2.0,88,0.00,CLR,CLR,0.00,WeatherDisplay:10.34,2013-02-03 09:32:00,
2013-02-03 02:37:00,15.2,12.3,30.10,NW,323,0.0,2.0,88,0.00,CLR,CLR,0.00,WeatherDisplay:10.34,2013-02-03 09:37:00,
2013-02-03 02:42:00,14.8,11.6,30.10,North,360,1.0,2.0,87,0.00,CLR,CLR,0.00,WeatherDisplay:10.34,2013-02-03 09:42:00,
2013-02-03 02:47:00,14.7,11.8,30.10,NNW,333,0.0,0.0,88,0.00,CLR,CLR,0.00,WeatherDisplay:10.34,2013-02-03 09:47:00,
2013-02-03 02:52:00,14.8,11.9,30.09,West,279,1.0,1.0,88,0.00,CLR,CLR,0.00,WeatherDisplay:10.34,2013-02-03 09:52:00,
2013-02-03 02:57:00,14.8,11.9,30.09,West,279,0.0,1.0,88,0.00,CLR,CLR,0.00,WeatherDisplay:10.34,2013-02-03 09:57:00,
2013-02-03 03:02:00,14.8,11.9,30.09,West,279,0.0,1.0,88,0.00,CLR,CLR,0.00,WeatherDisplay:10.34,2013-02-03 10:02:00,
2013-02-03 03:07:00,14.7,11.8,30.09,West,279,0.0,1.0,88,0.00,CLR,CLR,0.00,WeatherDisplay:10.34,2013-02-03 10:07:00,
2013-02-03 03:12:00,14.5,11.3,30.08,West,279,1.0,2.0,87,0.00,CLR,CLR,0.00,WeatherDisplay:10.34,2013-02-03 10:12:00,
2013-02-03 03:17:00,14.3,11.1,30.08,NNE,22,3.0,3.0,87,0.00,CLR,CLR,0.00,WeatherDisplay:10.34,2013-02-03 10:17:00,
2013-02-03 03:22:00,14.2,11.0,30.08,North,11,0.0,2.0,87,0.00,CLR,CLR,0.00,WeatherDisplay:10.34,2013-02-03 10:22:00,
2013-02-03 03:27:00,14.2,11.0,30.08,North,11,2.0,2.0,87,0.00,CLR,CLR,0.00,WeatherDisplay:10.34,2013-02-03 10:27:00,
2013-02-03 03:32:00,14.1,10.9,30.08,NNE,12,0.0,0.0,87,0.00,CLR,CLR,0.00,WeatherDisplay:10.34,2013-02-03 10:32:00,
2013-02-03 03:37:00,14.1,11.2,30.08,North,11,0.0,0.0,88,0.00,CLR,CLR,0.00,WeatherDisplay:10.34,2013-02-03 10:37:00,
2013-02-03 03:43:00,14.0,10.8,30.07,North,11,1.0,1.0,87,0.00,CLR,CLR,0.00,WeatherDisplay:10.34,2013-02-03 10:43:00,
2013-02-03 03:48:00,13.8,10.6,30.07,NNE,12,0.0,1.0,87,0.00,CLR,CLR,0.00,WeatherDisplay:10.34,2013-02-03 10:48:00,
2013-02-03 03:53:00,13.6,10.5,30.07,North,11,0.0,0.0,87,0.00,CLR,CLR,0.00,WeatherDisplay:10.34,2013-02-03 10:53:00,
2013-02-03 03:58:00,13.3,10.2,30.07,NNE,12,1.0,1.0,87,0.00,CLR,CLR,0.00,WeatherDisplay:10.34,2013-02-03 10:58:00,
2013-02-03 04:03:00,13.2,10.1,30.06,NNE,12,0.0,0.0,87,0.00,CLR,CLR,0.00,WeatherDisplay:10.34,2013-02-03 11:03:00,
2013-02-03 04:08:00,13.2,10.1,30.06,NNE,12,0.0,1.0,87,0.00,CLR,CLR,0.00,WeatherDisplay:10.34,2013-02-03 11:08:00,
2013-02-03 04:13:00,13.2,10.1,30.06,North,11,2.0,2.0,87,0.00,CLR,CLR,0.00,WeatherDisplay:10.34,2013-02-03 11:13:00,
2013-02-03 04:18:00,13.1,10.0,30.06,NNE,12,0.0,0.0,87,0.00,CLR,CLR,0.00,WeatherDisplay:10.34,2013-02-03 11:18:00,
2013-02-03 04:23:00,13.1,10.0,30.06,NNE,12,0.0,0.0,87,0.00,CLR,CLR,0.00,WeatherDisplay:10.34,2013-02-03 11:23:00,
2013-02-03 04:28:00,12.7,9.6,30.06,NNE,12,0.0,1.0,87,0.00,CLR,CLR,0.00,WeatherDisplay:10.34,2013-02-03 11:28:00,
2013-02-03 04:33:00,12.6,9.5,30.06,WSW,254,2.0,3.0,87,0.00,CLR,CLR,0.00,WeatherDisplay:10.34,2013-02-03 11:33:00,
2013-02-03 04:38:00,12.6,9.5,30.06,WNW,287,2.0,2.0,87,0.00,CLR,CLR,0.00,WeatherDisplay:10.34,2013-02-03 11:38:00,
2013-02-03 04:44:00,12.5,9.4,30.06,WNW,287,2.0,2.0,87,0.00,CLR,CLR,0.00,WeatherDisplay:10.34,2013-02-03 11:44:00,
2013-02-03 04:49:00,12.7,9.8,30.05,NNW,343,6.0,7.0,88,0.00,CLR,CLR,0.00,WeatherDisplay:10.34,2013-02-03 11:49:00,
2013-02-03 04:54:00,12.9,10.0,30.04,NNW,344,3.0,5.0,88,0.00,CLR,CLR,0.00,WeatherDisplay:10.34,2013-02-03 11:54:00,
2013-02-03 04:59:00,12.8,9.9,30.04,NNW,347,1.0,1.0,88,0.00,CLR,CLR,0.00,WeatherDisplay:10.34,2013-02-03 11:59:00,
2013-02-03 05:04:00,12.8,9.9,30.03,NNW,342,2.0,2.0,88,0.00,CLR,CLR,0.00,WeatherDisplay:10.34,2013-02-03 12:04:00,
2013-02-03 05:09:00,12.7,9.8,30.03,NNW,342,0.0,0.0,88,0.00,CLR,CLR,0.00,WeatherDisplay:10.34,2013-02-03 12:09:00,
2013-02-03 05:14:00,12.7,9.8,30.04,NNW,348,1.0,2.0,88,0.00,CLR,CLR,0.00,WeatherDisplay:10.34,2013-02-03 12:14:00,
2013-02-03 05:19:00,12.7,9.8,30.04,North,360,0.0,1.0,88,0.00,CLR,CLR,0.00,WeatherDisplay:10.34,2013-02-03 12:19:00,
2013-02-03 05:24:00,12.6,9.7,30.04,North,360,0.0,0.0,88,0.00,CLR,CLR,0.00,WeatherDisplay:10.34,2013-02-03 12:24:00,
2013-02-03 05:29:00,12.6,9.7,30.04,North,360,0.0,0.0,88,0.00,CLR,CLR,0.00,WeatherDisplay:10.34,2013-02-03 12:29:00,
2013-02-03 05:34:00,12.4,9.5,30.04,North,360,0.0,1.0,88,0.00,CLR,CLR,0.00,WeatherDisplay:10.34,2013-02-03 12:34:00,
2013-02-03 05:39:00,12.3,9.4,30.04,NW,310,2.0,2.0,88,0.00,CLR,CLR,0.00,WeatherDisplay:10.34,2013-02-03 12:39:00,
2013-02-03 05:44:00,12.5,9.6,30.03,NW,311,0.0,1.0,88,0.00,CLR,CLR,0.00,WeatherDisplay:10.34,2013-02-03 12:44:00,
2013-02-03 05:49:00,12.7,10.1,30.03,NE,35,4.0,7.0,89,0.00,CLR,CLR,0.00,WeatherDisplay:10.34,2013-02-03 12:49:00,
2013-02-03 05:54:00,13.0,10.4,30.01,North,355,1.0,2.0,89,0.00,CLR,CLR,0.00,WeatherDisplay:10.34,2013-02-03 12:54:00,
2013-02-03 05:59:00,13.2,10.6,30.01,North,355,0.0,1.0,89,0.00,CLR,CLR,0.00,WeatherDisplay:10.34,2013-02-03 12:59:00,
2013-02-03 06:04:00,13.4,10.8,30.01,WNW,297,2.0,2.0,89,0.00,CLR,CLR,0.00,WeatherDisplay:10.34,2013-02-03 13:04:00,
2013-02-03 06:09:00,13.5,10.9,30.01,WNW,297,1.0,2.0,89,0.00,CLR,CLR,0.00,WeatherDisplay:10.34,2013-02-03 13:09:00,
2013-02-03 06:14:00,13.5,10.9,30.01,WNW,297,1.0,1.0,89,0.00,CLR,CLR,0.00,WeatherDisplay:10.34,2013-02-03 13:14:00,
2013-02-03 06:19:00,13.5,10.9,30.01,WNW,297,0.0,0.0,89,0.00,CLR,CLR,0.00,WeatherDisplay:10.34,2013-02-03 13:19:00,
2013-02-03 06:24:00,13.5,10.9,30.01,WNW,297,0.0,0.0,89,0.00,CLR,CLR,0.00,WeatherDisplay:10.34,2013-02-03 13:24:00,
2013-02-03 06:29:00,13.4,10.8,30.01,WNW,297,0.0,1.0,89,0.00,CLR,CLR,0.00,WeatherDisplay:10.34,2013-02-03 13:29:00,
2013-02-03 06:34:00,13.4,10.8,30.00,WNW,297,0.0,1.0,89,0.00,CLR,CLR,0.00,WeatherDisplay:10.34,2013-02-03 13:34:00,
2013-02-03 06:39:00,13.3,10.7,30.00,NE,42,0.0,1.0,89,0.00,CLR,CLR,0.00,WeatherDisplay:10.34,2013-02-03 13:39:00,
2013-02-03 06:44:00,13.3,10.7,30.00,NE,41,0.0,1.0,89,0.00,CLR,CLR,0.00,WeatherDisplay:10.34,2013-02-03 13:44:00,
2013-02-03 06:49:00,13.3,10.7,30.00,NNW,335,1.0,1.0,89,0.00,CLR,CLR,0.00,WeatherDisplay:10.34,2013-02-03 13:49:00,
2013-02-03 06:54:00,13.2,10.6,30.00,NNW,336,3.0,3.0,89,0.00,CLR,CLR,0.00,WeatherDisplay:10.34,2013-02-03 13:54:00,
2013-02-03 06:59:00,13.1,10.5,30.00,NNW,336,0.0,1.0,89,0.00,CLR,CLR,0.00,WeatherDisplay:10.34,2013-02-03 13:59:00,
2013-02-03 07:04:00,13.0,10.4,30.00,North,11,3.0,3.0,89,0.00,OVC,OVC,0.00,WeatherDisplay:10.34,2013-02-03 14:04:00,
2013-02-03 07:09:00,13.1,10.5,30.00,North,355,2.0,2.0,89,0.00,OVC,OVC,0.00,WeatherDisplay:10.34,2013-02-03 14:09:00,
2013-02-03 07:14:00,13.1,10.5,30.00,North,355,3.0,3.0,89,0.00,OVC,OVC,0.00,WeatherDisplay:10.34,2013-02-03 14:14:00,
2013-02-03 07:20:00,13.2,10.6,29.99,North,360,1.0,2.0,89,0.00,OVC,OVC,0.00,WeatherDisplay:10.34,2013-02-03 14:20:00,
2013-02-03 07:25:00,13.4,10.8,29.99,North,355,1.0,3.0,89,0.00,OVC,OVC,0.00,WeatherDisplay:10.34,2013-02-03 14:25:00,
2013-02-03 07:30:00,13.5,10.9,29.99,North,355,1.0,2.0,89,0.00,OVC,OVC,0.00,WeatherDisplay:10.34,2013-02-03 14:30:00,
2013-02-03 07:36:00,13.6,11.0,29.99,WNW,282,3.0,3.0,89,0.00,OVC,OVC,0.00,WeatherDisplay:10.34,2013-02-03 14:36:00,
2013-02-03 07:41:00,13.7,11.1,29.98,West,269,3.0,3.0,89,0.00,OVC,OVC,0.00,WeatherDisplay:10.34,2013-02-03 14:41:00,
2013-02-03 07:46:00,13.9,11.3,29.98,NE,45,1.0,1.0,89,0.00,SCT,SCT,0.00,WeatherDisplay:10.34,2013-02-03 14:46:00,
2013-02-03 07:51:00,14.0,11.4,29.98,NNE,25,0.0,0.0,89,0.00,BKN,BKN,0.00,WeatherDisplay:10.34,2013-02-03 14:51:00,
2013-02-03 07:56:00,14.2,11.6,29.98,North,351,4.0,5.0,89,0.00,BKN,BKN,0.00,WeatherDisplay:10.34,2013-02-03 14:56:00,
2013-02-03 08:01:00,14.3,11.7,29.98,NNW,346,4.0,5.0,89,0.00,BKN,BKN,0.00,WeatherDisplay:10.34,2013-02-03 15:01:00,
2013-02-03 08:06:00,14.4,11.8,29.98,NE,40,4.0,4.0,89,0.00,BKN,BKN,0.00,WeatherDisplay:10.34,2013-02-03 15:06:00,
2013-02-03 08:11:00,14.5,11.9,29.98,North,360,1.0,1.0,89,0.00,BKN,BKN,0.00,WeatherDisplay:10.34,2013-02-03 15:11:00,
2013-02-03 08:16:00,14.6,11.9,29.98,North,360,3.0,3.0,89,0.00,BKN,BKN,0.00,WeatherDisplay:10.34,2013-02-03 15:16:00,
2013-02-03 08:21:00,14.6,11.9,29.97,NNW,340,7.0,7.0,89,0.00,BKN,BKN,0.00,WeatherDisplay:10.34,2013-02-03 15:21:00,
2013-02-03 08:26:00,14.6,11.9,29.97,North,355,6.0,6.0,89,0.00,BKN,BKN,0.00,WeatherDisplay:10.34,2013-02-03 15:26:00,
2013-02-03 08:31:00,14.8,12.1,29.97,NNE,15,2.0,2.0,89,0.00,BKN,BKN,0.00,WeatherDisplay:10.34,2013-02-03 15:31:00,
2013-02-03 08:36:00,15.0,12.3,29.97,North,9,0.0,1.0,89,0.00,BKN,BKN,0.00,WeatherDisplay:10.34,2013-02-03 15:36:00,
2013-02-03 08:41:00,15.4,12.7,29.96,NNW,346,2.0,2.0,89,0.00,BKN,BKN,0.00,WeatherDisplay:10.34,2013-02-03 15:41:00,
2013-02-03 08:46:00,15.7,13.0,29.96,North,355,5.0,7.0,89,0.00,BKN,BKN,0.00,WeatherDisplay:10.34,2013-02-03 15:46:00,
2013-02-03 08:51:00,15.8,13.1,29.96,North,360,1.0,1.0,89,0.00,BKN,BKN,0.00,WeatherDisplay:10.34,2013-02-03 15:51:00,
2013-02-03 08:56:00,16.1,13.4,29.96,NNW,337,4.0,5.0,89,0.00,BKN,BKN,0.00,WeatherDisplay:10.34,2013-02-03 15:56:00,
2013-02-03 09:01:00,16.4,13.7,29.97,North,355,4.0,4.0,89,0.00,BKN,BKN,0.00,WeatherDisplay:10.34,2013-02-03 16:01:00,
2013-02-03 09:06:00,16.7,14.3,29.97,NNW,338,3.0,3.0,90,0.00,BKN,BKN,0.00,WeatherDisplay:10.34,2013-02-03 16:06:00,
2013-02-03 09:11:00,16.9,14.2,29.96,NNW,342,2.0,3.0,89,0.00,BKN,BKN,0.00,WeatherDisplay:10.34,2013-02-03 16:11:00,
2013-02-03 09:16:00,17.1,14.4,29.96,NNE,17,1.0,2.0,89,0.00,BKN,BKN,0.00,WeatherDisplay:10.34,2013-02-03 16:16:00,
2013-02-03 09:21:00,17.3,14.6,29.96,NNW,340,1.0,1.0,89,0.00,BKN,BKN,0.00,WeatherDisplay:10.34,2013-02-03 16:21:00,
2013-02-03 09:26:00,17.5,14.8,29.96,North,10,1.0,1.0,89,0.00,BKN,BKN,0.00,WeatherDisplay:10.34,2013-02-03 16:26:00,
2013-02-03 09:31:00,17.7,15.0,29.96,NNW,338,6.0,7.0,89,0.00,BKN,BKN,0.00,WeatherDisplay:10.34,2013-02-03 16:31:00,
2013-02-03 09:36:00,18.0,15.3,29.96,North,351,1.0,2.0,89,0.00,BKN,BKN,0.00,WeatherDisplay:10.34,2013-02-03 16:36:00,
2013-02-03 09:41:00,18.3,15.6,29.96,NNE,22,4.0,4.0,89,0.00,BKN,BKN,0.00,WeatherDisplay:10.34,2013-02-03 16:41:00,
2013-02-03 09:46:00,18.6,15.9,29.96,NNW,331,3.0,3.0,89,0.00,BKN,BKN,0.00,WeatherDisplay:10.34,2013-02-03 16:46:00,
2013-02-03 09:51:00,18.9,16.2,29.95,NE,38,2.0,3.0,89,0.00,BKN,BKN,0.00,WeatherDisplay:10.34,2013-02-03 16:51:00,
2013-02-03 09:56:00,19.2,16.5,29.95,North,355,3.0,3.0,89,0.00,BKN,BKN,0.00,WeatherDisplay:10.34,2013-02-03 16:56:00,
2013-02-03 10:01:00,19.3,16.3,29.96,North,349,5.0,7.0,88,0.00,BKN,BKN,0.00,WeatherDisplay:10.34,2013-02-03 17:01:00,
2013-02-03 10:06:00,19.5,16.5,29.96,North,360,6.0,7.0,88,0.00,BKN,BKN,0.00,WeatherDisplay:10.34,2013-02-03 17:06:00,
2013-02-03 10:11:00,19.7,16.7,29.95,NNE,15,7.0,9.0,88,0.00,OVC,OVC,0.00,WeatherDisplay:10.34,2013-02-03 17:11:00,
2013-02-03 10:16:00,19.7,16.7,29.96,North,5,6.0,7.0,88,0.00,BKN,BKN,0.00,WeatherDisplay:10.34,2013-02-03 17:16:00,
2013-02-03 10:21:00,19.8,16.8,29.95,North,10,2.0,3.0,88,0.00,OVC,OVC,0.00,WeatherDisplay:10.34,2013-02-03 17:21:00,
2013-02-03 10:26:00,20.2,17.2,29.95,NE,52,0.0,2.0,88,0.00,OVC,OVC,0.00,WeatherDisplay:10.34,2013-02-03 17:26:00,
2013-02-03 10:31:00,20.4,17.4,29.95,NE,42,0.0,0.0,88,0.00,OVC,OVC,0.00,WeatherDisplay:10.34,2013-02-03 17:31:00,
2013-02-03 10:36:00,20.8,17.8,29.95,NNW,346,8.0,8.0,88,0.00,BKN,BKN,0.00,WeatherDisplay:10.34,2013-02-03 17:36:00,
2013-02-03 10:41:00,21.1,17.8,29.95,NNE,19,3.0,3.0,87,0.00,BKN,BKN,0.00,WeatherDisplay:10.34,2013-02-03 17:41:00,
2013-02-03 10:46:00,21.5,18.2,29.95,NNE,28,4.0,7.0,87,0.00,BKN,BKN,0.00,WeatherDisplay:10.34,2013-02-03 17:46:00,
2013-02-03 10:52:00,21.9,18.6,29.96,NE,40,8.0,9.0,87,0.00,BKN,BKN,0.00,WeatherDisplay:10.34,2013-02-03 17:52:00,
2013-02-03 10:57:00,22.1,18.6,29.96,NNW,333,0.0,1.0,86,0.00,BKN,BKN,0.00,WeatherDisplay:10.34,2013-02-03 17:57:00,
2013-02-03 11:02:00,22.4,18.8,29.96,NNE,25,0.0,0.0,86,0.00,SCT,SCT,0.00,WeatherDisplay:10.34,2013-02-03 18:02:00,
2013-02-03 11:07:00,22.4,18.8,29.96,NNE,26,0.0,0.0,86,0.00,SCT,SCT,0.00,WeatherDisplay:10.34,2013-02-03 18:07:00,
2013-02-03 11:12:00,23.0,19.4,29.95,NNE,14,2.0,5.0,86,0.00,BKN,BKN,0.00,WeatherDisplay:10.34,2013-02-03 18:12:00,
2013-02-03 11:17:00,23.2,19.4,29.95,North,10,0.0,0.0,85,0.00,BKN,BKN,0.00,WeatherDisplay:10.34,2013-02-03 18:17:00,
2013-02-03 11:22:00,23.4,19.3,29.94,SSE,162,4.0,4.0,84,0.00,BKN,BKN,0.00,WeatherDisplay:10.34,2013-02-03 18:22:00,
2013-02-03 11:27:00,23.4,19.3,29.94,SSE,162,0.0,0.0,84,0.00,OVC,OVC,0.00,WeatherDisplay:10.34,2013-02-03 18:27:00,
2013-02-03 11:32:00,23.4,19.0,29.95,NNW,329,2.0,3.0,83,0.00,OVC,OVC,0.00,WeatherDisplay:10.34,2013-02-03 18:32:00,
2013-02-03 11:37:00,23.5,19.1,29.95,NNW,346,1.0,2.0,83,0.00,OVC,OVC,0.00,WeatherDisplay:10.34,2013-02-03 18:37:00,
2013-02-03 11:42:00,23.8,19.4,29.94,West,259,1.0,1.0,83,0.00,BKN,BKN,0.00,WeatherDisplay:10.34,2013-02-03 18:42:00,
2013-02-03 11:47:00,24.0,19.6,29.94,West,261,0.0,0.0,83,0.00,BKN,BKN,0.00,WeatherDisplay:10.34,2013-02-03 18:47:00,
2013-02-03 11:52:00,24.2,19.8,29.92,South,189,0.0,0.0,83,0.00,BKN,BKN,0.00,WeatherDisplay:10.34,2013-02-03 18:52:00,
2013-02-03 11:57:00,24.6,20.2,29.92,South,188,0.0,0.0,83,0.00,BKN,BKN,0.00,WeatherDisplay:10.34,2013-02-03 18:57:00,
2013-02-03 12:02:00,24.9,20.2,29.92,South,189,0.0,0.0,82,0.00,OVC,OVC,0.00,WeatherDisplay:10.34,2013-02-03 19:02:00,
2013-02-03 12:07:00,25.1,20.1,29.92,North,5,2.0,2.0,81,0.00,OVC,OVC,0.00,WeatherDisplay:10.34,2013-02-03 19:07:00,
2013-02-03 12:12:00,25.4,20.7,29.92,North,360,2.0,3.0,82,0.00,BKN,BKN,0.00,WeatherDisplay:10.34,2013-02-03 19:12:00,
2013-02-03 12:17:00,26.4,21.7,29.92,ENE,57,1.0,3.0,82,0.00,CLR,CLR,0.00,WeatherDisplay:10.34,2013-02-03 19:17:00,
2013-02-03 12:22:00,27.4,22.3,29.91,NNE,30,3.0,3.0,81,0.00,CLR,CLR,0.00,WeatherDisplay:10.34,2013-02-03 19:22:00,
2013-02-03 12:27:00,27.6,21.6,29.91,NNE,26,6.0,8.0,78,0.00,FEW,FEW,0.00,WeatherDisplay:10.34,2013-02-03 19:27:00,
2013-02-03 12:32:00,26.9,21.0,29.92,North,360,4.0,5.0,78,0.00,FEW,FEW,0.00,WeatherDisplay:10.34,2013-02-03 19:32:00,
2013-02-03 12:37:00,26.9,20.7,29.92,NNE,33,6.0,9.0,77,0.00,SCT,SCT,0.00,WeatherDisplay:10.34,2013-02-03 19:37:00,
2013-02-03 12:42:00,26.3,20.1,29.92,ENE,63,9.0,10.0,77,0.00,SCT,SCT,0.00,WeatherDisplay:10.34,2013-02-03 19:42:00,
2013-02-03 12:47:00,26.2,20.3,29.91,ENE,68,3.0,3.0,78,0.00,SCT,SCT,0.00,WeatherDisplay:10.34,2013-02-03 19:47:00,
2013-02-03 12:52:00,26.2,20.3,29.91,ENE,57,5.0,9.0,78,0.00,SCT,SCT,0.00,WeatherDisplay:10.34,2013-02-03 19:52:00,
2013-02-03 12:57:00,26.3,20.7,29.92,NE,37,9.0,9.0,79,0.00,FEW,FEW,0.00,WeatherDisplay:10.34,2013-02-03 19:57:00,
2013-02-03 13:02:00,26.7,21.1,29.92,ENE,74,11.0,13.0,79,0.00,FEW,FEW,0.00,WeatherDisplay:10.34,2013-02-03 20:02:00,
2013-02-03 13:07:00,26.8,20.9,29.91,NE,37,7.0,9.0,78,0.00,CLR,CLR,0.00,WeatherDisplay:10.34,2013-02-03 20:07:00,
2013-02-03 13:12:00,26.9,20.7,29.91,North,355,4.0,7.0,77,0.00,SCT,SCT,0.00,WeatherDisplay:10.34,2013-02-03 20:12:00,
2013-02-03 13:17:00,26.8,20.2,29.91,ENE,63,5.0,7.0,76,0.00,SCT,SCT,0.00,WeatherDisplay:10.34,2013-02-03 20:17:00,
2013-02-03 13:22:00,26.9,20.3,29.91,NE,36,6.0,7.0,76,0.00,BKN,BKN,0.00,WeatherDisplay:10.34,2013-02-03 20:22:00,
2013-02-03 13:27:00,26.9,19.7,29.91,North,9,5.0,7.0,74,0.00,BKN,BKN,0.00,WeatherDisplay:10.34,2013-02-03 20:27:00,
2013-02-03 13:32:00,26.7,19.5,29.91,NE,56,0.0,1.0,74,0.00,OVC,OVC,0.00,WeatherDisplay:10.34,2013-02-03 20:32:00,
2013-02-03 13:37:00,27.4,20.2,29.91,ENE,59,2.0,2.0,74,0.00,BKN,BKN,0.00,WeatherDisplay:10.34,2013-02-03 20:37:00,
2013-02-03 13:42:00,27.7,19.8,29.90,ENE,57,3.0,3.0,72,0.00,SCT,SCT,0.00,WeatherDisplay:10.34,2013-02-03 20:42:00,
2013-02-03 13:47:00,27.9,20.0,29.90,ENE,73,4.0,4.0,72,0.00,SCT,SCT,0.00,WeatherDisplay:10.34,2013-02-03 20:47:00,
2013-02-03 13:52:00,28.1,19.9,29.90,North,9,2.0,2.0,71,0.00,SCT,SCT,0.00,WeatherDisplay:10.34,2013-02-03 20:52:00,
2013-02-03 13:57:00,28.2,20.3,29.90,NE,53,5.0,7.0,72,0.00,SCT,SCT,0.00,WeatherDisplay:10.34,2013-02-03 20:57:00,
2013-02-03 14:02:00,28.1,20.2,29.90,NNE,29,7.0,8.0,72,0.00,SCT,SCT,0.00,WeatherDisplay:10.34,2013-02-03 21:02:00,
2013-02-03 14:07:00,27.7,19.8,29.90,North,350,5.0,7.0,72,0.00,SCT,SCT,0.00,WeatherDisplay:10.34,2013-02-03 21:07:00,
2013-02-03 14:12:00,27.4,20.2,29.90,NNE,15,3.0,7.0,74,0.00,SCT,SCT,0.00,WeatherDisplay:10.34,2013-02-03 21:12:00,
2013-02-03 14:17:00,27.3,20.1,29.90,NNE,15,3.0,3.0,74,0.00,BKN,BKN,0.00,WeatherDisplay:10.34,2013-02-03 21:17:00,
2013-02-03 14:22:00,27.4,20.2,29.89,NE,53,3.0,3.0,74,0.00,BKN,BKN,0.00,WeatherDisplay:10.34,2013-02-03 21:22:00,
2013-02-03 14:27:00,27.6,20.4,29.89,NE,51,0.0,2.0,74,0.00,SCT,SCT,0.00,WeatherDisplay:10.34,2013-02-03 21:27:00,
2013-02-03 14:32:00,28.0,20.5,29.89,East,79,2.0,3.0,73,0.00,CLR,CLR,0.00,WeatherDisplay:10.34,2013-02-03 21:32:00,
2013-02-03 14:37:00,28.5,20.6,29.89,East,79,2.0,2.0,72,0.00,CLR,CLR,0.00,WeatherDisplay:10.34,2013-02-03 21:37:00,
2013-02-03 14:42:00,28.9,20.7,29.89,ENE,70,5.0,7.0,71,0.00,FEW,FEW,0.00,WeatherDisplay:10.34,2013-02-03 21:42:00,
2013-02-03 14:47:00,29.5,21.3,29.89,ENE,71,0.0,1.0,71,0.00,CLR,CLR,0.00,WeatherDisplay:10.34,2013-02-03 21:47:00,
2013-02-03 14:52:00,30.2,20.9,29.89,SE,131,3.0,3.0,68,0.00,FEW,FEW,0.00,WeatherDisplay:10.34,2013-02-03 21:52:00,
2013-02-03 14:57:00,30.3,20.6,29.89,ESE,108,1.0,2.0,67,0.00,SCT,SCT,0.00,WeatherDisplay:10.34,2013-02-03 21:57:00,
2013-02-03 15:02:00,30.2,20.6,29.89,ENE,72,1.0,2.0,67,0.00,BKN,BKN,0.00,WeatherDisplay:10.34,2013-02-03 22:02:00,
2013-02-03 15:07:00,30.1,20.5,29.89,ENE,72,0.0,0.0,67,0.00,SCT,SCT,0.00,WeatherDisplay:10.34,2013-02-03 22:07:00,
2013-02-03 15:12:00,30.2,20.6,29.89,ENE,72,1.0,2.0,67,0.00,CLR,CLR,0.00,WeatherDisplay:10.34,2013-02-03 22:12:00,
2013-02-03 15:17:00,30.5,20.8,29.89,South,174,0.0,1.0,67,0.00,CLR,CLR,0.00,WeatherDisplay:10.34,2013-02-03 22:17:00,
2013-02-03 15:22:00,30.8,21.1,29.90,South,174,0.0,0.0,67,0.00,CLR,CLR,0.00,WeatherDisplay:10.34,2013-02-03 22:22:00,
2013-02-03 15:27:00,31.1,21.1,29.90,South,174,0.0,2.0,66,0.00,CLR,CLR,0.00,WeatherDisplay:10.34,2013-02-03 22:27:00,
2013-02-03 15:33:00,31.3,21.3,29.90,South,174,1.0,1.0,66,0.00,BKN,BKN,0.00,WeatherDisplay:10.34,2013-02-03 22:33:00,
2013-02-03 15:38:00,31.1,21.1,29.90,NNW,343,1.0,2.0,66,0.00,FEW,FEW,0.00,WeatherDisplay:10.34,2013-02-03 22:38:00,
2013-02-03 15:43:00,30.9,20.9,29.90,NE,34,2.0,2.0,66,0.00,CLR,CLR,0.00,WeatherDisplay:10.34,2013-02-03 22:43:00,
2013-02-03 15:48:00,31.0,21.3,29.90,NE,34,0.0,0.0,67,0.00,FEW,FEW,0.00,WeatherDisplay:10.34,2013-02-03 22:48:00,
2013-02-03 15:53:00,31.0,21.0,29.89,North,360,4.0,5.0,66,0.00,CLR,CLR,0.00,WeatherDisplay:10.34,2013-02-03 22:53:00,
2013-02-03 15:58:00,30.6,21.3,29.89,North,350,5.0,5.0,68,0.00,CLR,CLR,0.00,WeatherDisplay:10.34,2013-02-03 22:58:00,
2013-02-03 16:03:00,30.4,21.1,29.89,North,349,5.0,5.0,68,0.00,CLR,CLR,0.00,WeatherDisplay:10.34,2013-02-03 23:03:00,
2013-02-03 16:08:00,30.6,21.3,29.89,North,349,2.0,2.0,68,0.00,CLR,CLR,0.00,WeatherDisplay:10.34,2013-02-03 23:08:00,
2013-02-03 16:13:00,30.9,21.6,29.89,NNE,33,2.0,2.0,68,0.00,CLR,CLR,0.00,WeatherDisplay:10.34,2013-02-03 23:13:00,
2013-02-03 16:18:00,31.2,21.5,29.89,NNW,344,4.0,5.0,67,0.00,CLR,CLR,0.00,WeatherDisplay:10.34,2013-02-03 23:18:00,
2013-02-03 16:23:00,30.8,21.1,29.90,North,360,4.0,4.0,67,0.00,BKN,BKN,0.00,WeatherDisplay:10.34,2013-02-03 23:23:00,
2013-02-03 16:28:00,30.2,20.9,29.90,NNE,32,3.0,5.0,68,0.00,SCT,SCT,0.00,WeatherDisplay:10.34,2013-02-03 23:28:00,
2013-02-03 16:33:00,29.5,20.6,29.90,NNE,16,5.0,5.0,69,0.00,BKN,BKN,0.00,WeatherDisplay:10.34,2013-02-03 23:33:00,
2013-02-03 16:38:00,28.9,20.3,29.90,North,5,1.0,2.0,70,0.00,BKN,BKN,0.00,WeatherDisplay:10.34,2013-02-03 23:38:00,
2013-02-03 16:43:00,28.5,20.3,29.89,North,360,0.0,0.0,71,0.00,SCT,SCT,0.00,WeatherDisplay:10.34,2013-02-03 23:43:00,
2013-02-03 16:48:00,28.3,20.1,29.89,North,5,0.0,2.0,71,0.00,CLR,CLR,0.00,WeatherDisplay:10.34,2013-02-03 23:48:00,
2013-02-03 16:53:00,28.1,19.9,29.89,North,5,4.0,4.0,71,0.00,CLR,CLR,0.00,WeatherDisplay:10.34,2013-02-03 23:53:00,
2013-02-03 16:58:00,27.9,20.0,29.89,North,360,1.0,2.0,72,0.00,CLR,CLR,0.00,WeatherDisplay:10.34,2013-02-03 23:58:00,
2013-02-03 17:03:00,28.0,20.1,29.89,North,5,0.0,1.0,72,0.00,CLR,CLR,0.00,WeatherDisplay:10.34,2013-02-04 00:03:00,
2013-02-03 17:08:00,28.1,20.2,29.89,North,360,1.0,1.0,72,0.00,CLR,CLR,0.00,WeatherDisplay:10.34,2013-02-04 00:08:00,
2013-02-03 17:13:00,28.1,20.2,29.89,North,5,3.0,3.0,72,0.00,CLR,CLR,0.00,WeatherDisplay:10.34,2013-02-04 00:13:00,
2013-02-03 17:18:00,27.8,19.6,29.89,North,360,1.0,1.0,71,0.00,OVC,OVC,0.00,WeatherDisplay:10.34,2013-02-04 00:18:00,
2013-02-03 17:23:00,27.6,19.8,29.90,ENE,57,3.0,3.0,72,0.00,OVC,OVC,0.00,WeatherDisplay:10.34,2013-02-04 00:23:00,
2013-02-03 17:28:00,27.6,19.8,29.90,NE,46,3.0,3.0,72,0.00,OVC,OVC,0.00,WeatherDisplay:10.34,2013-02-04 00:28:00,
2013-02-03 17:33:00,27.4,19.6,29.90,ENE,57,3.0,3.0,72,0.00,OVC,OVC,0.00,WeatherDisplay:10.34,2013-02-04 00:33:00,
2013-02-03 17:38:00,27.1,19.3,29.89,NE,51,5.0,5.0,72,0.00,OVC,OVC,0.00,WeatherDisplay:10.34,2013-02-04 00:38:00,
2013-02-03 17:43:00,26.7,18.9,29.89,ENE,59,2.0,2.0,72,0.00,OVC,OVC,0.00,WeatherDisplay:10.34,2013-02-04 00:43:00,
2013-02-03 17:48:00,26.5,18.7,29.89,ENE,59,2.0,2.0,72,0.00,OVC,OVC,0.00,WeatherDisplay:10.34,2013-02-04 00:48:00,
2013-02-03 17:53:00,26.2,18.7,29.89,NE,51,4.0,5.0,73,0.00,OVC,OVC,0.00,WeatherDisplay:10.34,2013-02-04 00:53:00,
2013-02-03 17:58:00,25.8,18.3,29.90,NE,50,1.0,1.0,73,0.00,OVC,OVC,0.00,WeatherDisplay:10.34,2013-02-04 00:58:00,
2013-02-03 18:03:00,25.4,18.3,29.90,East,80,7.0,8.0,74,0.00,CLR,CLR,0.00,WeatherDisplay:10.34,2013-02-04 01:03:00,
2013-02-03 18:08:00,25.0,18.2,29.90,WNW,283,2.0,2.0,75,0.00,CLR,CLR,0.00,WeatherDisplay:10.34,2013-02-04 01:08:00,
2013-02-03 18:13:00,24.7,17.9,29.89,East,92,8.0,8.0,75,0.00,CLR,CLR,0.00,WeatherDisplay:10.34,2013-02-04 01:13:00,
2013-02-03 18:18:00,24.2,17.7,29.89,West,264,4.0,5.0,76,0.00,CLR,CLR,0.00,WeatherDisplay:10.34,2013-02-04 01:18:00,
2013-02-03 18:23:00,24.0,17.8,29.89,NNW,341,2.0,2.0,77,0.00,CLR,CLR,0.00,WeatherDisplay:10.34,2013-02-04 01:23:00,
2013-02-03 18:28:00,23.8,17.6,29.89,NE,46,0.0,0.0,77,0.00,CLR,CLR,0.00,WeatherDisplay:10.34,2013-02-04 01:28:00,
2013-02-03 18:33:00,23.8,17.6,29.89,NE,46,0.0,1.0,77,0.00,CLR,CLR,0.00,WeatherDisplay:10.34,2013-02-04 01:33:00,
2013-02-03 18:38:00,23.6,17.4,29.89,NE,46,0.0,0.0,77,0.00,CLR,CLR,0.00,WeatherDisplay:10.34,2013-02-04 01:38:00,
2013-02-03 18:43:00,23.5,17.6,29.89,NE,46,0.0,0.0,78,0.00,CLR,CLR,0.00,WeatherDisplay:10.34,2013-02-04 01:43:00,
2013-02-03 18:48:00,23.4,17.3,29.89,NE,46,0.0,0.0,77,0.00,CLR,CLR,0.00,WeatherDisplay:10.34,2013-02-04 01:48:00,
2013-02-03 18:53:00,23.1,17.3,29.89,NE,46,0.0,0.0,78,0.00,CLR,CLR,0.00,WeatherDisplay:10.34,2013-02-04 01:53:00,
2013-02-03 18:58:00,22.9,17.1,29.89,NE,46,0.0,0.0,78,0.00,CLR,CLR,0.00,WeatherDisplay:10.34,2013-02-04 01:58:00,
2013-02-03 19:03:00,22.7,16.9,29.89,NE,46,0.0,1.0,78,0.00,CLR,CLR,0.00,WeatherDisplay:10.34,2013-02-04 02:03:00,
2013-02-03 19:08:00,22.4,16.6,29.89,North,360,0.0,2.0,78,0.00,CLR,CLR,0.00,WeatherDisplay:10.34,2013-02-04 02:08:00,
2013-02-03 19:13:00,22.1,16.6,29.89,WNW,288,1.0,1.0,79,0.00,CLR,CLR,0.00,WeatherDisplay:10.34,2013-02-04 02:13:00,
2013-02-03 19:18:00,21.9,16.4,29.89,WNW,288,0.0,0.0,79,0.00,CLR,CLR,0.00,WeatherDisplay:10.34,2013-02-04 02:18:00,
2013-02-03 19:23:00,21.7,16.2,29.90,WNW,288,1.0,1.0,79,0.00,CLR,CLR,0.00,WeatherDisplay:10.34,2013-02-04 02:23:00,
2013-02-03 19:28:00,21.4,15.9,29.90,WSW,249,2.0,3.0,79,0.00,CLR,CLR,0.00,WeatherDisplay:10.34,2013-02-04 02:28:00,
2013-02-03 19:33:00,21.1,15.6,29.90,WSW,249,2.0,2.0,79,0.00,CLR,CLR,0.00,WeatherDisplay:10.34,2013-02-04 02:33:00,
2013-02-03 19:38:00,20.9,15.7,29.90,WSW,249,0.0,0.0,80,0.00,CLR,CLR,0.00,WeatherDisplay:10.34,2013-02-04 02:38:00,
2013-02-03 19:43:00,20.8,15.6,29.89,WSW,249,0.0,0.0,80,0.00,CLR,CLR,0.00,WeatherDisplay:10.34,2013-02-04 02:43:00,
2013-02-03 19:48:00,20.7,15.8,29.89,WSW,249,0.0,0.0,81,0.00,CLR,CLR,0.00,WeatherDisplay:10.34,2013-02-04 02:48:00,
2013-02-03 19:53:00,20.6,15.7,29.90,WSW,249,0.0,0.0,81,0.00,CLR,CLR,0.00,WeatherDisplay:10.34,2013-02-04 02:53:00,
2013-02-03 19:58:00,20.6,16.0,29.90,WSW,249,0.0,0.0,82,0.00,CLR,CLR,0.00,WeatherDisplay:10.34,2013-02-04 02:58:00,
2013-02-03 20:03:00,20.6,16.0,29.90,WSW,249,0.0,0.0,82,0.00,CLR,CLR,0.00,WeatherDisplay:10.34,2013-02-04 03:03:00,
2013-02-03 20:08:00,20.6,16.3,29.90,WSW,249,0.0,0.0,83,0.00,CLR,CLR,0.00,WeatherDisplay:10.34,2013-02-04 03:08:00,
2013-02-03 20:13:00,20.8,16.5,29.90,WSW,249,0.0,0.0,83,0.00,CLR,CLR,0.00,WeatherDisplay:10.34,2013-02-04 03:13:00,
2013-02-03 20:18:00,20.8,16.5,29.90,WSW,249,0.0,0.0,83,0.00,CLR,CLR,0.00,WeatherDisplay:10.34,2013-02-04 03:18:00,
2013-02-03 20:23:00,20.9,16.8,29.90,WSW,249,0.0,1.0,84,0.00,CLR,CLR,0.00,WeatherDisplay:10.34,2013-02-04 03:23:00,
2013-02-03 20:28:00,21.0,16.9,29.90,SW,236,0.0,1.0,84,0.00,CLR,CLR,0.00,WeatherDisplay:10.34,2013-02-04 03:28:00,
2013-02-03 20:33:00,21.0,16.9,29.89,SSE,158,1.0,2.0,84,0.00,CLR,CLR,0.00,WeatherDisplay:10.34,2013-02-04 03:33:00,
2013-02-03 20:38:00,21.0,16.9,29.90,SSE,157,0.0,1.0,84,0.00,CLR,CLR,0.00,WeatherDisplay:10.34,2013-02-04 03:38:00,
2013-02-03 20:43:00,20.9,16.8,29.89,SSE,157,1.0,1.0,84,0.00,CLR,CLR,0.00,WeatherDisplay:10.34,2013-02-04 03:43:00,
2013-02-03 20:48:00,20.8,16.7,29.89,SSE,158,0.0,0.0,84,0.00,CLR,CLR,0.00,WeatherDisplay:10.34,2013-02-04 03:48:00,
2013-02-03 20:53:00,20.8,16.7,29.89,SSE,158,0.0,0.0,84,0.00,CLR,CLR,0.00,WeatherDisplay:10.34,2013-02-04 03:53:00,
2013-02-03 20:58:00,20.7,16.6,29.89,SSE,158,2.0,2.0,84,0.00,CLR,CLR,0.00,WeatherDisplay:10.34,2013-02-04 03:58:00,
2013-02-03 21:03:00,20.6,16.3,29.89,SSE,158,0.0,1.0,83,0.00,CLR,CLR,0.00,WeatherDisplay:10.34,2013-02-04 04:03:00,
2013-02-03 21:08:00,20.5,16.4,29.90,SSE,157,0.0,0.0,84,0.00,CLR,CLR,0.00,WeatherDisplay:10.34,2013-02-04 04:08:00,
2013-02-03 21:13:00,20.4,16.3,29.89,SSE,158,1.0,1.0,84,0.00,CLR,CLR,0.00,WeatherDisplay:10.34,2013-02-04 04:13:00,
2013-02-03 21:18:00,20.2,16.1,29.89,SW,223,2.0,2.0,84,0.00,CLR,CLR,0.00,WeatherDisplay:10.34,2013-02-04 04:18:00,
2013-02-03 21:23:00,20.1,16.0,29.88,SW,223,0.0,0.0,84,0.00,CLR,CLR,0.00,WeatherDisplay:10.34,2013-02-04 04:23:00,
2013-02-03 21:28:00,20.0,15.9,29.88,SW,223,0.0,0.0,84,0.00,CLR,CLR,0.00,WeatherDisplay:10.34,2013-02-04 04:28:00,
2013-02-03 21:33:00,20.0,16.2,29.88,SW,227,2.0,2.0,85,0.00,CLR,CLR,0.00,WeatherDisplay:10.34,2013-02-04 04:33:00,
2013-02-03 21:38:00,20.0,16.2,29.88,SW,227,0.0,0.0,85,0.00,CLR,CLR,0.00,WeatherDisplay:10.34,2013-02-04 04:38:00,
2013-02-03 21:43:00,19.9,15.8,29.88,SW,227,0.0,1.0,84,0.00,CLR,CLR,0.00,WeatherDisplay:10.34,2013-02-04 04:43:00,
2013-02-03 21:48:00,19.7,15.6,29.88,ENE,61,0.0,1.0,84,0.00,CLR,CLR,0.00,WeatherDisplay:10.34,2013-02-04 04:48:00,
2013-02-03 21:53:00,19.7,15.6,29.88,ENE,74,0.0,1.0,84,0.00,CLR,CLR,0.00,WeatherDisplay:10.34,2013-02-04 04:53:00,
2013-02-03 21:58:00,19.7,15.9,29.88,ENE,72,2.0,2.0,85,0.00,CLR,CLR,0.00,WeatherDisplay:10.34,2013-02-04 04:58:00,
2013-02-03 22:00:00,19.6,15.8,29.88,ENE,72,1.0,2.0,85,0.00,CLR,CLR,0.00,WeatherDisplay:10.34,2013-02-04 05:00:00,
2013-02-03 22:01:00,19.7,15.6,29.88,ENE,72,2.0,2.0,84,0.00,CLR,CLR,0.00,WeatherDisplay:10.34,2013-02-04 05:01:00,
2013-02-03 22:02:00,19.6,15.6,29.88,ENE,72,2.0,2.0,84,0.00,CLR,CLR,0.00,WeatherDisplay:10.34,2013-02-04 05:02:00,
2013-02-03 22:03:00,19.6,15.8,29.88,East,90,1.0,2.0,85,0.00,CLR,CLR,0.00,WeatherDisplay:10.34,2013-02-04 05:03:00,
2013-02-03 22:08:00,19.6,15.8,29.88,East,90,2.0,2.0,85,0.00,CLR,CLR,0.00,WeatherDisplay:10.34,2013-02-04 05:08:00,
2013-02-03 22:13:00,19.7,16.2,29.88,ESE,102,1.0,2.0,86,0.00,CLR,CLR,0.00,WeatherDisplay:10.34,2013-02-04 05:13:00,
2013-02-03 22:18:00,20.1,16.6,29.88,West,259,5.0,5.0,86,0.00,CLR,CLR,0.00,WeatherDisplay:10.34,2013-02-04 05:18:00,
2013-02-03 22:23:00,20.3,16.8,29.88,NNW,333,5.0,7.0,86,0.00,CLR,CLR,0.00,WeatherDisplay:10.34,2013-02-04 05:23:00,
2013-02-03 22:28:00,20.4,16.9,29.88,NNE,25,10.0,10.0,86,0.00,CLR,CLR,0.00,WeatherDisplay:10.34,2013-02-04 05:28:00,
2013-02-03 22:33:00,20.4,16.6,29.88,WNW,297,2.0,3.0,85,0.00,CLR,CLR,0.00,WeatherDisplay:10.34,2013-02-04 05:33:00,
2013-02-03 22:38:00,20.3,16.5,29.88,WNW,283,5.0,7.0,85,0.00,CLR,CLR,0.00,WeatherDisplay:10.34,2013-02-04 05:38:00,
2013-02-03 22:43:00,20.3,16.5,29.87,North,355,6.0,8.0,85,0.00,CLR,CLR,0.00,WeatherDisplay:10.34,2013-02-04 05:43:00,
2013-02-03 22:48:00,20.4,16.6,29.87,ESE,122,1.0,2.0,85,0.00,CLR,CLR,0.00,WeatherDisplay:10.34,2013-02-04 05:48:00,
2013-02-03 22:53:00,20.6,16.8,29.87,NNE,17,11.0,12.0,85,0.00,CLR,CLR,0.00,WeatherDisplay:10.34,2013-02-04 05:53:00,
2013-02-03 22:58:00,20.7,16.9,29.86,NNE,29,2.0,3.0,85,0.00,CLR,CLR,0.00,WeatherDisplay:10.34,2013-02-04 05:58:00,
2013-02-03 23:03:00,20.9,16.8,29.87,ENE,71,6.0,10.0,84,0.00,CLR,CLR,0.00,WeatherDisplay:10.34,2013-02-04 06:03:00,
2013-02-03 23:08:00,20.6,16.5,29.87,NE,51,9.0,10.0,84,0.00,CLR,CLR,0.00,WeatherDisplay:10.34,2013-02-04 06:08:00,
2013-02-03 23:14:00,20.3,16.2,29.86,ENE,76,3.0,5.0,84,0.00,CLR,CLR,0.00,WeatherDisplay:10.34,2013-02-04 06:14:00,
2013-02-03 23:19:00,20.1,16.0,29.86,East,92,15.0,15.0,84,0.00,CLR,CLR,0.00,WeatherDisplay:10.34,2013-02-04 06:19:00,
2013-02-03 23:24:00,19.9,15.8,29.86,East,83,8.0,8.0,84,0.00,CLR,CLR,0.00,WeatherDisplay:10.34,2013-02-04 06:24:00,
2013-02-03 23:29:00,20.0,15.9,29.86,East,82,11.0,11.0,84,0.00,CLR,CLR,0.00,WeatherDisplay:10.34,2013-02-04 06:29:00,
2013-02-03 23:34:00,19.9,15.8,29.86,East,79,9.0,9.0,84,0.00,CLR,CLR,0.00,WeatherDisplay:10.34,2013-02-04 06:34:00,
2013-02-03 23:39:00,19.8,15.7,29.87,ENE,72,7.0,9.0,84,0.00,CLR,CLR,0.00,WeatherDisplay:10.34,2013-02-04 06:39:00,
2013-02-03 23:44:00,19.7,15.6,29.87,NE,37,3.0,3.0,84,0.00,CLR,CLR,0.00,WeatherDisplay:10.34,2013-02-04 06:44:00,
2013-02-03 23:49:00,19.5,15.5,29.87,East,95,3.0,3.0,84,0.00,CLR,CLR,0.00,WeatherDisplay:10.34,2013-02-04 06:49:00,
2013-02-03 23:54:00,19.3,15.3,29.86,North,360,3.0,3.0,84,0.00,CLR,CLR,0.00,WeatherDisplay:10.34,2013-02-04 06:54:00,
2013-02-03 23:59:00,20.3,16.8,29.86,East,80,14.0,16.0,86,0.00,CLR,CLR,0.00,WeatherDisplay:10.34,2013-02-04 06:59:00,